| time (UTC) | temp F | wind direction | speed knots | gust knots | rain 1hr in | rain 24hr in | rain mn in | humidity % | barometer mb |
| 20260902081002 | 62 | 220 | 7.8 | 0.0 | 0.00 | 0.00 | 0.00 | 80 | 1018.0 |
| 20260902061002 | 55 | 220 | 3.5 | 0.0 | 0.00 | 0.00 | 0.00 | 95 | 1018.0 |
| 20260902051002 | 53 | 220 | 3.5 | 0.0 | 0.00 | 0.00 | 0.00 | 95 | 1018.0 |
| 20260902041002 | 53 | 230 | 3.5 | 0.0 | 0.00 | 0.00 | 0.00 | 95 | 1018.0 |
| 20260902031001 | 55 | 230 | 4.3 | 0.0 | 0.00 | 0.00 | 0.00 | 90 | 1018.0 |
| 20260902021002 | 55 | 230 | 4.3 | 0.0 | 0.00 | 0.00 | 0.00 | 90 | 1019.0 |
| 20260902011002 | 55 | 230 | 4.3 | 0.0 | 0.00 | 0.00 | 0.00 | 90 | 1018.0 |
| 20260902001002 | 55 | 230 | 3.5 | 0.0 | 0.00 | 0.00 | 0.00 | 90 | 1018.0 |
| 20260901221001 | 59 | 250 | 4.3 | 0.0 | 0.00 | 0.00 | 0.00 | 85 | 1019.0 |
| 20260901211002 | 60 | 270 | 5.2 | 0.0 | 0.00 | 0.00 | 0.00 | 80 | 1018.0 |
| 20260901201002 | 62 | 270 | 6.1 | 0.0 | 0.00 | 0.00 | 0.00 | 75 | 1018.0 |
| 20260901191003 | 62 | 280 | 5.2 | 0.0 | 0.00 | 0.00 | 0.00 | 75 | 1018.0 |
| 20260901181002 | 64 | 280 | 7.0 | 0.0 | 0.00 | 0.00 | 0.00 | 70 | 1017.0 |
| 20260901171002 | 66 | 280 | 9.6 | 0.0 | 0.00 | 0.00 | 0.00 | 65 | 1017.0 |
| 20260901161002 | 66 | 270 | 10.4 | 0.0 | 0.00 | 0.00 | 0.00 | 70 | 1017.0 |
| 20260901151003 | 64 | 260 | 7.0 | 0.0 | 0.00 | 0.00 | 0.00 | 80 | 1017.0 |
| 20260901141001 | 64 | 290 | 10.4 | 0.0 | 0.00 | 0.00 | 0.00 | 80 | 1017.0 |
| 20260901131003 | 64 | 290 | 9.6 | 0.0 | 0.00 | 0.00 | 0.00 | 90 | 1016.0 |
| 20260901121002 | 64 | 330 | 9.6 | 0.0 | 0.00 | 0.00 | 0.00 | 90 | 1016.0 |
| 20260901111002 | 68 | 250 | 8.7 | 0.0 | 0.00 | 0.00 | 0.00 | 70 | 1015.0 |
| 20260901101002 | 68 | 240 | 13.9 | 0.0 | 0.00 | 0.00 | 0.00 | 70 | 1015.0 |